Date,TemperatureHighF,TemperatureAvgF,TemperatureLowF,DewpointHighF,DewpointAvgF,DewpointLowF,HumidityHigh,HumidityAvg,HumidityLow,PressureMaxIn,PressureMinIn,WindSpeedMaxMPH,WindSpeedAvgMPH,GustSpeedMaxMPH,PrecipitationSumIn
2013-2-1,31.1,26.1,20.5,20.0,11.1,5.0,86,54,37,30.18,29.69,6,1,13,0.00
2013-2-2,29.5,22.5,16.1,17.0,10.7,7.0,85,62,39,30.24,30.05,5,1,10,0.00
2013-2-3,30.8,22.2,14.1,19.0,15.9,13.0,94,78,52,30.05,29.78,3,0,3,0.00
2013-2-4,31.6,24.4,18.7,19.0,10.5,6.0,90,57,37,29.95,29.78,5,0,12,0.00
2013-2-5,30.8,25.0,19.6,24.0,17.3,12.0,91,73,55,30.01,29.89,2,0,2,0.00
2013-2-6,39.3,28.4,18.6,27.0,18.1,6.0,95,69,39,30.36,29.90,3,0,10,0.01
2013-2-7,33.1,23.4,13.5,15.0,9.9,7.0,83,59,34,30.53,30.35,1,0,3,0.00
2013-2-8,30.8,28.1,25.8,29.0,23.1,14.0,95,82,59,30.37,29.75,3,0,6,0.00
2013-2-9,31.9,24.5,11.5,25.0,14.8,4.0,95,70,37,30.35,29.81,0,0,0,0.00
2013-2-10,32.8,15.1,-0.8,14.0,5.8,-4.0,91,70,36,30.52,30.31,0,0,0,0.00
2013-2-11,38.6,31.2,18.4,37.0,28.3,13.0,97,89,67,30.30,29.66,1,0,4,0.36
2013-2-12,44.8,37.5,33.2,34.0,29.4,23.0,97,74,55,29.95,29.69,3,0,7,0.29
2013-2-13,44.6,35.4,23.9,28.0,24.8,21.0,90,67,44,29.93,29.71,2,0,4,0.01
2013-2-14,45.7,33.9,21.3,30.0,24.9,20.0,95,72,45,29.96,29.72,2,0,4,0.00
2013-2-15,53.7,40.1,27.7,33.0,28.4,24.0,87,65,37,29.99,29.87,3,0,12,0.00
2013-2-16,36.1,31.5,27.6,31.0,23.3,13.0,93,73,52,30.00,29.79,2,0,8,0.07
2013-2-17,29.9,23.8,16.3,13.0,4.9,1.0,59,46,30,29.94,29.67,8,1,15,0.00
2013-2-18,37.0,24.2,15.9,14.0,6.3,2.0,73,49,26,30.20,29.95,5,1,13,0.00
2013-2-19,39.9,31.6,22.0,34.0,23.3,12.0,96,73,48,30.16,29.63,5,0,6,0.23
2013-2-20,35.6,29.4,24.3,33.0,15.3,7.0,92,57,40,29.95,29.65,5,1,9,0.00
2013-2-21,33.9,27.1,21.7,17.0,13.6,11.0,76,58,44,30.34,29.92,4,1,11,0.00
2013-2-22,36.9,29.3,17.7,26.0,20.9,15.0,90,72,54,30.43,30.27,3,0,3,0.00
2013-2-23,36.8,34.0,31.1,35.0,32.2,26.0,96,93,76,30.27,29.86,3,0,3,0.14
2013-2-24,42.3,35.7,26.8,37.0,31.5,24.0,97,85,63,29.97,29.75,3,0,8,0.05
2013-2-25,45.6,33.1,21.8,31.0,26.6,20.0,96,79,52,30.24,29.98,0,0,2,0.00
2013-2-26,46.7,35.8,23.5,32.0,26.9,22.0,97,72,48,30.31,30.02,2,0,3,0.00
2013-2-27,41.7,36.6,32.2,41.0,35.1,29.0,97,94,82,30.01,29.53,4,0,4,1.39
2013-2-28,46.1,37.5,32.4,42.0,35.4,32.0,97,92,79,29.61,29.55,2,0,4,0.03